sensor_id;sensor_type;location;lat;lon;timestamp;P1;durP1;ratioP1;P2;durP2;ratioP2
23988;SDS011;74667;52.136;5.592;2024-03-22T00:00:56;69.70;;;37.60;;
23988;SDS011;74667;52.136;5.592;2024-03-22T00:03:21;73.40;;;37.30;;
23988;SDS011;74667;52.136;5.592;2024-03-22T00:05:47;71.35;;;37.20;;
23988;SDS011;74667;52.136;5.592;2024-03-22T00:08:12;67.35;;;35.60;;
23988;SDS011;74667;52.136;5.592;2024-03-22T00:10:37;66.63;;;36.57;;
23988;SDS011;74667;52.136;5.592;2024-03-22T00:13:03;64.90;;;34.87;;
23988;SDS011;74667;52.136;5.592;2024-03-22T00:15:28;74.80;;;38.50;;
23988;SDS011;74667;52.136;5.592;2024-03-22T00:17:53;64.57;;;35.77;;
23988;SDS011;74667;52.136;5.592;2024-03-22T00:20:18;66.53;;;35.47;;
23988;SDS011;74667;52.136;5.592;2024-03-22T00:22:43;68.97;;;35.83;;
23988;SDS011;74667;52.136;5.592;2024-03-22T00:25:08;71.40;;;35.63;;
23988;SDS011;74667;52.136;5.592;2024-03-22T00:27:34;67.20;;;35.03;;
23988;SDS011;74667;52.136;5.592;2024-03-22T00:29:59;68.67;;;36.13;;
23988;SDS011;74667;52.136;5.592;2024-03-22T00:32:24;68.35;;;35.03;;
23988;SDS011;74667;52.136;5.592;2024-03-22T00:34:49;67.15;;;36.08;;
23988;SDS011;74667;52.136;5.592;2024-03-22T00:37:14;64.30;;;34.47;;
23988;SDS011;74667;52.136;5.592;2024-03-22T00:39:40;64.87;;;35.43;;
23988;SDS011;74667;52.136;5.592;2024-03-22T00:42:05;71.63;;;36.90;;
23988;SDS011;74667;52.136;5.592;2024-03-22T00:44:30;71.35;;;37.13;;
23988;SDS011;74667;52.136;5.592;2024-03-22T00:46:55;65.35;;;35.10;;
23988;SDS011;74667;52.136;5.592;2024-03-22T00:49:20;71.77;;;36.17;;
23988;SDS011;74667;52.136;5.592;2024-03-22T00:51:45;73.10;;;37.80;;
23988;SDS011;74667;52.136;5.592;2024-03-22T00:54:12;68.93;;;37.33;;
23988;SDS011;74667;52.136;5.592;2024-03-22T00:56:37;73.93;;;36.78;;
23988;SDS011;74667;52.136;5.592;2024-03-22T00:59:02;74.57;;;37.15;;
23988;SDS011;74667;52.136;5.592;2024-03-22T01:01:28;74.33;;;37.03;;
23988;SDS011;74667;52.136;5.592;2024-03-22T01:03:53;76.95;;;39.45;;
23988;SDS011;74667;52.136;5.592;2024-03-22T01:06:18;74.83;;;36.13;;
23988;SDS011;74667;52.136;5.592;2024-03-22T01:08:48;76.05;;;38.50;;
23988;SDS011;74667;52.136;5.592;2024-03-22T01:11:13;68.57;;;37.95;;
23988;SDS011;74667;52.136;5.592;2024-03-22T01:13:39;78.00;;;39.53;;
23988;SDS011;74667;52.136;5.592;2024-03-22T01:16:04;82.93;;;38.73;;
23988;SDS011;74667;52.136;5.592;2024-03-22T01:18:29;84.22;;;40.42;;
23988;SDS011;74667;52.136;5.592;2024-03-22T01:20:55;78.33;;;39.50;;
23988;SDS011;74667;52.136;5.592;2024-03-22T01:23:20;79.70;;;38.93;;
23988;SDS011;74667;52.136;5.592;2024-03-22T01:25:45;87.27;;;40.17;;
23988;SDS011;74667;52.136;5.592;2024-03-22T01:28:10;76.68;;;39.35;;
23988;SDS011;74667;52.136;5.592;2024-03-22T01:30:35;81.80;;;39.17;;
23988;SDS011;74667;52.136;5.592;2024-03-22T01:33:01;75.40;;;38.33;;
23988;SDS011;74667;52.136;5.592;2024-03-22T01:35:27;83.18;;;39.13;;
23988;SDS011;74667;52.136;5.592;2024-03-22T01:37:52;73.47;;;38.17;;
23988;SDS011;74667;52.136;5.592;2024-03-22T01:40:17;83.10;;;40.60;;
23988;SDS011;74667;52.136;5.592;2024-03-22T01:42:42;82.80;;;41.45;;
23988;SDS011;74667;52.136;5.592;2024-03-22T01:45:07;78.57;;;39.23;;
23988;SDS011;74667;52.136;5.592;2024-03-22T01:47:33;78.47;;;40.67;;
23988;SDS011;74667;52.136;5.592;2024-03-22T01:49:58;78.00;;;40.53;;
23988;SDS011;74667;52.136;5.592;2024-03-22T01:52:23;83.57;;;40.47;;
23988;SDS011;74667;52.136;5.592;2024-03-22T01:54:49;82.45;;;40.85;;
23988;SDS011;74667;52.136;5.592;2024-03-22T01:57:14;81.57;;;40.92;;
23988;SDS011;74667;52.136;5.592;2024-03-22T01:59:40;73.28;;;39.72;;
23988;SDS011;74667;52.136;5.592;2024-03-22T02:02:05;83.80;;;41.95;;
23988;SDS011;74667;52.136;5.592;2024-03-22T02:04:30;85.93;;;41.30;;
23988;SDS011;74667;52.136;5.592;2024-03-22T02:06:56;81.43;;;41.58;;
23988;SDS011;74667;52.136;5.592;2024-03-22T02:09:21;86.60;;;42.03;;
23988;SDS011;74667;52.136;5.592;2024-03-22T02:11:46;81.85;;;40.70;;
23988;SDS011;74667;52.136;5.592;2024-03-22T02:14:11;76.63;;;40.97;;
23988;SDS011;74667;52.136;5.592;2024-03-22T02:16:39;85.00;;;41.50;;
23988;SDS011;74667;52.136;5.592;2024-03-22T02:19:04;81.20;;;41.10;;
23988;SDS011;74667;52.136;5.592;2024-03-22T02:21:29;86.27;;;41.80;;
23988;SDS011;74667;52.136;5.592;2024-03-22T02:23:54;80.83;;;41.60;;
23988;SDS011;74667;52.136;5.592;2024-03-22T02:26:20;85.47;;;42.00;;
23988;SDS011;74667;52.136;5.592;2024-03-22T02:28:45;79.13;;;40.50;;
23988;SDS011;74667;52.136;5.592;2024-03-22T02:31:10;77.10;;;40.27;;
23988;SDS011;74667;52.136;5.592;2024-03-22T02:33:35;74.30;;;39.83;;
23988;SDS011;74667;52.136;5.592;2024-03-22T02:36:00;84.30;;;41.27;;
23988;SDS011;74667;52.136;5.592;2024-03-22T02:38:25;85.13;;;42.27;;
23988;SDS011;74667;52.136;5.592;2024-03-22T02:40:51;83.75;;;43.28;;
23988;SDS011;74667;52.136;5.592;2024-03-22T02:43:17;83.93;;;41.97;;
23988;SDS011;74667;52.136;5.592;2024-03-22T02:45:44;86.38;;;43.47;;
23988;SDS011;74667;52.136;5.592;2024-03-22T02:48:09;86.38;;;43.03;;
23988;SDS011;74667;52.136;5.592;2024-03-22T02:50:34;79.90;;;41.27;;
23988;SDS011;74667;52.136;5.592;2024-03-22T02:53:00;79.57;;;42.28;;
23988;SDS011;74667;52.136;5.592;2024-03-22T02:55:25;82.65;;;42.13;;
23988;SDS011;74667;52.136;5.592;2024-03-22T02:57:51;78.32;;;40.28;;
23988;SDS011;74667;52.136;5.592;2024-03-22T03:00:16;83.70;;;42.45;;
23988;SDS011;74667;52.136;5.592;2024-03-22T03:02:41;76.65;;;40.92;;
23988;SDS011;74667;52.136;5.592;2024-03-22T03:05:06;81.13;;;41.43;;
23988;SDS011;74667;52.136;5.592;2024-03-22T03:07:32;72.70;;;40.22;;
23988;SDS011;74667;52.136;5.592;2024-03-22T03:09:57;78.47;;;40.20;;
23988;SDS011;74667;52.136;5.592;2024-03-22T03:12:22;74.00;;;40.20;;
23988;SDS011;74667;52.136;5.592;2024-03-22T03:14:47;71.07;;;37.70;;
23988;SDS011;74667;52.136;5.592;2024-03-22T03:17:12;67.53;;;36.80;;
23988;SDS011;74667;52.136;5.592;2024-03-22T03:19:37;71.40;;;36.50;;
23988;SDS011;74667;52.136;5.592;2024-03-22T03:22:03;67.78;;;35.33;;
23988;SDS011;74667;52.136;5.592;2024-03-22T03:24:28;70.57;;;36.38;;
23988;SDS011;74667;52.136;5.592;2024-03-22T03:26:53;69.70;;;35.07;;
23988;SDS011;74667;52.136;5.592;2024-03-22T03:29:19;66.67;;;35.90;;
23988;SDS011;74667;52.136;5.592;2024-03-22T03:31:44;67.53;;;35.78;;
23988;SDS011;74667;52.136;5.592;2024-03-22T03:34:09;71.43;;;37.00;;
23988;SDS011;74667;52.136;5.592;2024-03-22T03:36:34;72.97;;;35.47;;
23988;SDS011;74667;52.136;5.592;2024-03-22T03:38:59;72.10;;;36.90;;
23988;SDS011;74667;52.136;5.592;2024-03-22T03:41:24;72.20;;;36.08;;
23988;SDS011;74667;52.136;5.592;2024-03-22T03:43:49;74.87;;;36.57;;
23988;SDS011;74667;52.136;5.592;2024-03-22T03:46:15;75.93;;;38.17;;
23988;SDS011;74667;52.136;5.592;2024-03-22T03:48:40;73.20;;;38.03;;
23988;SDS011;74667;52.136;5.592;2024-03-22T03:51:05;73.40;;;37.57;;
23988;SDS011;74667;52.136;5.592;2024-03-22T03:53:30;73.93;;;36.27;;
23988;SDS011;74667;52.136;5.592;2024-03-22T03:55:55;77.80;;;37.90;;
23988;SDS011;74667;52.136;5.592;2024-03-22T03:58:21;81.82;;;38.92;;
23988;SDS011;74667;52.136;5.592;2024-03-22T04:00:46;81.70;;;38.22;;
23988;SDS011;74667;52.136;5.592;2024-03-22T04:03:11;80.43;;;39.80;;
23988;SDS011;74667;52.136;5.592;2024-03-22T04:05:36;76.22;;;38.85;;
23988;SDS011;74667;52.136;5.592;2024-03-22T04:08:01;87.47;;;40.70;;
23988;SDS011;74667;52.136;5.592;2024-03-22T04:10:27;83.75;;;39.30;;
23988;SDS011;74667;52.136;5.592;2024-03-22T04:12:52;82.70;;;39.27;;
23988;SDS011;74667;52.136;5.592;2024-03-22T04:15:17;82.27;;;38.77;;
23988;SDS011;74667;52.136;5.592;2024-03-22T04:17:42;85.30;;;40.47;;
23988;SDS011;74667;52.136;5.592;2024-03-22T04:20:07;82.50;;;39.13;;
23988;SDS011;74667;52.136;5.592;2024-03-22T04:22:33;83.45;;;39.67;;
23988;SDS011;74667;52.136;5.592;2024-03-22T04:24:58;81.40;;;41.00;;
23988;SDS011;74667;52.136;5.592;2024-03-22T04:27:24;80.90;;;40.90;;
23988;SDS011;74667;52.136;5.592;2024-03-22T04:29:49;82.40;;;40.63;;
23988;SDS011;74667;52.136;5.592;2024-03-22T04:32:14;83.43;;;40.33;;
23988;SDS011;74667;52.136;5.592;2024-03-22T04:34:42;85.83;;;41.83;;
23988;SDS011;74667;52.136;5.592;2024-03-22T04:37:07;85.93;;;41.80;;
23988;SDS011;74667;52.136;5.592;2024-03-22T04:39:34;88.35;;;42.30;;
23988;SDS011;74667;52.136;5.592;2024-03-22T04:41:59;89.93;;;42.70;;
23988;SDS011;74667;52.136;5.592;2024-03-22T04:44:24;88.32;;;43.38;;
23988;SDS011;74667;52.136;5.592;2024-03-22T04:46:50;87.35;;;42.42;;
23988;SDS011;74667;52.136;5.592;2024-03-22T04:49:15;83.97;;;43.33;;
23988;SDS011;74667;52.136;5.592;2024-03-22T04:51:40;91.40;;;43.03;;
23988;SDS011;74667;52.136;5.592;2024-03-22T04:54:05;88.82;;;44.50;;
23988;SDS011;74667;52.136;5.592;2024-03-22T04:56:30;91.93;;;45.73;;
23988;SDS011;74667;52.136;5.592;2024-03-22T04:58:56;87.83;;;43.60;;
23988;SDS011;74667;52.136;5.592;2024-03-22T05:01:21;89.68;;;43.25;;
23988;SDS011;74667;52.136;5.592;2024-03-22T05:03:48;93.53;;;42.97;;
23988;SDS011;74667;52.136;5.592;2024-03-22T05:06:13;81.73;;;43.77;;
23988;SDS011;74667;52.136;5.592;2024-03-22T05:08:38;88.87;;;43.63;;
23988;SDS011;74667;52.136;5.592;2024-03-22T05:11:04;84.60;;;43.40;;
23988;SDS011;74667;52.136;5.592;2024-03-22T05:13:29;87.13;;;41.50;;
23988;SDS011;74667;52.136;5.592;2024-03-22T05:15:54;84.90;;;42.37;;
23988;SDS011;74667;52.136;5.592;2024-03-22T05:18:19;85.82;;;44.10;;
23988;SDS011;74667;52.136;5.592;2024-03-22T05:20:44;87.80;;;43.03;;
23988;SDS011;74667;52.136;5.592;2024-03-22T05:23:10;86.50;;;43.80;;
23988;SDS011;74667;52.136;5.592;2024-03-22T05:25:35;81.13;;;41.57;;
23988;SDS011;74667;52.136;5.592;2024-03-22T05:28:00;81.37;;;43.13;;
23988;SDS011;74667;52.136;5.592;2024-03-22T05:30:25;84.28;;;42.40;;
23988;SDS011;74667;52.136;5.592;2024-03-22T05:32:51;81.27;;;41.30;;
23988;SDS011;74667;52.136;5.592;2024-03-22T05:35:16;73.93;;;39.83;;
23988;SDS011;74667;52.136;5.592;2024-03-22T05:37:41;84.00;;;40.47;;
23988;SDS011;74667;52.136;5.592;2024-03-22T05:40:06;81.35;;;42.60;;
23988;SDS011;74667;52.136;5.592;2024-03-22T05:42:32;82.05;;;42.42;;
23988;SDS011;74667;52.136;5.592;2024-03-22T05:44:57;82.10;;;41.53;;
23988;SDS011;74667;52.136;5.592;2024-03-22T05:47:22;86.38;;;41.85;;
23988;SDS011;74667;52.136;5.592;2024-03-22T05:49:48;76.77;;;40.33;;
23988;SDS011;74667;52.136;5.592;2024-03-22T05:52:13;78.18;;;40.28;;
23988;SDS011;74667;52.136;5.592;2024-03-22T05:54:38;81.07;;;41.67;;
23988;SDS011;74667;52.136;5.592;2024-03-22T05:57:03;74.47;;;40.97;;
23988;SDS011;74667;52.136;5.592;2024-03-22T05:59:30;75.38;;;40.80;;
23988;SDS011;74667;52.136;5.592;2024-03-22T06:01:55;75.47;;;40.53;;
23988;SDS011;74667;52.136;5.592;2024-03-22T06:04:20;71.80;;;37.87;;
23988;SDS011;74667;52.136;5.592;2024-03-22T06:06:45;74.18;;;40.53;;
23988;SDS011;74667;52.136;5.592;2024-03-22T06:09:11;74.80;;;39.90;;
23988;SDS011;74667;52.136;5.592;2024-03-22T06:11:38;75.70;;;39.45;;
23988;SDS011;74667;52.136;5.592;2024-03-22T06:14:03;73.38;;;39.45;;
23988;SDS011;74667;52.136;5.592;2024-03-22T06:16:29;81.38;;;40.30;;
23988;SDS011;74667;52.136;5.592;2024-03-22T06:18:54;73.63;;;38.33;;
23988;SDS011;74667;52.136;5.592;2024-03-22T06:21:19;71.05;;;38.47;;
23988;SDS011;74667;52.136;5.592;2024-03-22T06:23:49;68.65;;;38.00;;
23988;SDS011;74667;52.136;5.592;2024-03-22T06:26:15;71.18;;;38.88;;
23988;SDS011;74667;52.136;5.592;2024-03-22T06:28:40;67.88;;;36.85;;
23988;SDS011;74667;52.136;5.592;2024-03-22T06:31:05;72.18;;;37.10;;
23988;SDS011;74667;52.136;5.592;2024-03-22T06:33:31;65.20;;;37.45;;
23988;SDS011;74667;52.136;5.592;2024-03-22T06:35:56;75.32;;;37.80;;
23988;SDS011;74667;52.136;5.592;2024-03-22T06:38:22;69.97;;;37.53;;
23988;SDS011;74667;52.136;5.592;2024-03-22T06:40:47;75.30;;;37.80;;
23988;SDS011;74667;52.136;5.592;2024-03-22T06:43:12;70.07;;;36.77;;
23988;SDS011;74667;52.136;5.592;2024-03-22T06:45:37;69.20;;;35.40;;
23988;SDS011;74667;52.136;5.592;2024-03-22T06:48:02;69.17;;;36.23;;
23988;SDS011;74667;52.136;5.592;2024-03-22T06:50:28;69.47;;;35.85;;
23988;SDS011;74667;52.136;5.592;2024-03-22T06:52:53;61.60;;;33.40;;
23988;SDS011;74667;52.136;5.592;2024-03-22T06:55:19;59.28;;;34.38;;
23988;SDS011;74667;52.136;5.592;2024-03-22T06:57:47;66.38;;;32.72;;
23988;SDS011;74667;52.136;5.592;2024-03-22T07:00:13;59.35;;;30.73;;
23988;SDS011;74667;52.136;5.592;2024-03-22T07:02:39;60.92;;;32.63;;
23988;SDS011;74667;52.136;5.592;2024-03-22T07:05:04;56.08;;;29.75;;
23988;SDS011;74667;52.136;5.592;2024-03-22T07:07:29;57.72;;;30.67;;
23988;SDS011;74667;52.136;5.592;2024-03-22T07:09:56;57.77;;;30.27;;
23988;SDS011;74667;52.136;5.592;2024-03-22T07:12:21;56.85;;;30.67;;
23988;SDS011;74667;52.136;5.592;2024-03-22T07:14:46;58.47;;;31.73;;
23988;SDS011;74667;52.136;5.592;2024-03-22T07:17:11;54.30;;;29.63;;
23988;SDS011;74667;52.136;5.592;2024-03-22T07:19:36;52.33;;;28.23;;
23988;SDS011;74667;52.136;5.592;2024-03-22T07:22:02;54.17;;;28.50;;
23988;SDS011;74667;52.136;5.592;2024-03-22T07:24:27;49.17;;;27.87;;
23988;SDS011;74667;52.136;5.592;2024-03-22T07:26:52;53.60;;;27.60;;
23988;SDS011;74667;52.136;5.592;2024-03-22T07:29:17;60.73;;;29.33;;
23988;SDS011;74667;52.136;5.592;2024-03-22T07:31:42;47.75;;;27.65;;
23988;SDS011;74667;52.136;5.592;2024-03-22T07:34:08;59.17;;;30.63;;
23988;SDS011;74667;52.136;5.592;2024-03-22T07:36:37;56.00;;;30.17;;
23988;SDS011;74667;52.136;5.592;2024-03-22T07:39:02;52.33;;;27.55;;
23988;SDS011;74667;52.136;5.592;2024-03-22T07:41:28;47.55;;;27.50;;
23988;SDS011;74667;52.136;5.592;2024-03-22T07:43:53;50.73;;;27.20;;
23988;SDS011;74667;52.136;5.592;2024-03-22T07:46:18;46.50;;;27.63;;
23988;SDS011;74667;52.136;5.592;2024-03-22T07:48:44;53.60;;;26.97;;
23988;SDS011;74667;52.136;5.592;2024-03-22T07:51:09;57.07;;;28.03;;
23988;SDS011;74667;52.136;5.592;2024-03-22T07:53:34;49.05;;;27.42;;
23988;SDS011;74667;52.136;5.592;2024-03-22T07:56:00;51.00;;;26.53;;
23988;SDS011;74667;52.136;5.592;2024-03-22T07:58:25;55.10;;;28.20;;
23988;SDS011;74667;52.136;5.592;2024-03-22T08:00:50;53.20;;;29.25;;
23988;SDS011;74667;52.136;5.592;2024-03-22T08:03:16;54.72;;;29.05;;
23988;SDS011;74667;52.136;5.592;2024-03-22T08:05:41;48.13;;;27.85;;
23988;SDS011;74667;52.136;5.592;2024-03-22T08:08:06;56.67;;;29.15;;
23988;SDS011;74667;52.136;5.592;2024-03-22T08:10:32;54.13;;;28.38;;
23988;SDS011;74667;52.136;5.592;2024-03-22T08:12:57;63.38;;;32.88;;
23988;SDS011;74667;52.136;5.592;2024-03-22T08:15:22;61.30;;;30.88;;
23988;SDS011;74667;52.136;5.592;2024-03-22T08:17:47;50.63;;;28.30;;
23988;SDS011;74667;52.136;5.592;2024-03-22T08:20:12;57.33;;;29.20;;
23988;SDS011;74667;52.136;5.592;2024-03-22T08:22:38;61.00;;;28.95;;
23988;SDS011;74667;52.136;5.592;2024-03-22T08:25:03;52.57;;;29.10;;
23988;SDS011;74667;52.136;5.592;2024-03-22T08:27:29;58.90;;;30.80;;
23988;SDS011;74667;52.136;5.592;2024-03-22T08:29:54;62.73;;;29.27;;
23988;SDS011;74667;52.136;5.592;2024-03-22T08:32:19;55.27;;;30.17;;
23988;SDS011;74667;52.136;5.592;2024-03-22T08:34:45;57.17;;;30.30;;
23988;SDS011;74667;52.136;5.592;2024-03-22T08:37:10;54.13;;;29.13;;
23988;SDS011;74667;52.136;5.592;2024-03-22T08:39:35;62.07;;;30.50;;
23988;SDS011;74667;52.136;5.592;2024-03-22T08:42:00;66.05;;;31.27;;
23988;SDS011;74667;52.136;5.592;2024-03-22T08:44:26;57.67;;;30.23;;
23988;SDS011;74667;52.136;5.592;2024-03-22T08:46:51;55.10;;;28.90;;
23988;SDS011;74667;52.136;5.592;2024-03-22T08:49:17;55.47;;;29.13;;
23988;SDS011;74667;52.136;5.592;2024-03-22T08:51:44;58.30;;;29.27;;
23988;SDS011;74667;52.136;5.592;2024-03-22T08:54:10;55.45;;;27.45;;
23988;SDS011;74667;52.136;5.592;2024-03-22T08:56:36;57.40;;;27.93;;
23988;SDS011;74667;52.136;5.592;2024-03-22T08:59:01;55.45;;;27.85;;
23988;SDS011;74667;52.136;5.592;2024-03-22T09:01:27;54.03;;;27.87;;
23988;SDS011;74667;52.136;5.592;2024-03-22T09:03:52;47.28;;;25.70;;
23988;SDS011;74667;52.136;5.592;2024-03-22T09:06:17;59.42;;;27.65;;
23988;SDS011;74667;52.136;5.592;2024-03-22T09:08:42;54.40;;;26.30;;
23988;SDS011;74667;52.136;5.592;2024-03-22T09:11:07;47.13;;;24.20;;
23988;SDS011;74667;52.136;5.592;2024-03-22T09:13:33;45.73;;;24.00;;
23988;SDS011;74667;52.136;5.592;2024-03-22T09:16:00;42.50;;;23.23;;
23988;SDS011;74667;52.136;5.592;2024-03-22T09:18:25;44.85;;;22.45;;
23988;SDS011;74667;52.136;5.592;2024-03-22T09:20:51;44.05;;;21.77;;
23988;SDS011;74667;52.136;5.592;2024-03-22T09:23:17;38.15;;;21.05;;
23988;SDS011;74667;52.136;5.592;2024-03-22T09:25:42;42.07;;;20.63;;
23988;SDS011;74667;52.136;5.592;2024-03-22T09:28:08;38.87;;;20.60;;
23988;SDS011;74667;52.136;5.592;2024-03-22T09:30:33;36.25;;;19.65;;
23988;SDS011;74667;52.136;5.592;2024-03-22T09:33:02;39.17;;;19.58;;
23988;SDS011;74667;52.136;5.592;2024-03-22T09:35:28;41.55;;;21.52;;
23988;SDS011;74667;52.136;5.592;2024-03-22T09:37:53;38.22;;;21.48;;
23988;SDS011;74667;52.136;5.592;2024-03-22T09:40:19;40.55;;;21.00;;
23988;SDS011;74667;52.136;5.592;2024-03-22T09:42:44;36.33;;;19.75;;
23988;SDS011;74667;52.136;5.592;2024-03-22T09:45:11;42.17;;;20.85;;
23988;SDS011;74667;52.136;5.592;2024-03-22T09:47:37;45.95;;;22.25;;
23988;SDS011;74667;52.136;5.592;2024-03-22T09:50:03;40.80;;;21.25;;
23988;SDS011;74667;52.136;5.592;2024-03-22T09:52:31;43.40;;;20.58;;
23988;SDS011;74667;52.136;5.592;2024-03-22T09:54:58;40.60;;;20.33;;
23988;SDS011;74667;52.136;5.592;2024-03-22T09:57:23;38.17;;;19.40;;
23988;SDS011;74667;52.136;5.592;2024-03-22T09:59:49;39.20;;;20.00;;
23988;SDS011;74667;52.136;5.592;2024-03-22T10:02:14;33.60;;;19.13;;
23988;SDS011;74667;52.136;5.592;2024-03-22T10:04:42;35.00;;;19.30;;
23988;SDS011;74667;52.136;5.592;2024-03-22T10:07:08;33.45;;;17.77;;
23988;SDS011;74667;52.136;5.592;2024-03-22T10:09:34;31.42;;;17.77;;
23988;SDS011;74667;52.136;5.592;2024-03-22T10:11:59;36.08;;;17.63;;
23988;SDS011;74667;52.136;5.592;2024-03-22T10:14:25;30.00;;;16.20;;
23988;SDS011;74667;52.136;5.592;2024-03-22T10:16:51;33.35;;;17.63;;
23988;SDS011;74667;52.136;5.592;2024-03-22T10:19:22;29.73;;;15.98;;
23988;SDS011;74667;52.136;5.592;2024-03-22T10:21:48;29.15;;;15.43;;
23988;SDS011;74667;52.136;5.592;2024-03-22T10:24:23;29.08;;;15.50;;
23988;SDS011;74667;52.136;5.592;2024-03-22T10:26:49;26.15;;;15.20;;
23988;SDS011;74667;52.136;5.592;2024-03-22T10:29:14;21.20;;;13.43;;
23988;SDS011;74667;52.136;5.592;2024-03-22T10:31:39;25.23;;;14.38;;
23988;SDS011;74667;52.136;5.592;2024-03-22T10:34:05;28.70;;;14.38;;
23988;SDS011;74667;52.136;5.592;2024-03-22T10:36:31;25.20;;;13.80;;
23988;SDS011;74667;52.136;5.592;2024-03-22T10:38:56;21.27;;;14.20;;
23988;SDS011;74667;52.136;5.592;2024-03-22T10:41:22;22.88;;;13.50;;
23988;SDS011;74667;52.136;5.592;2024-03-22T10:43:47;21.88;;;13.52;;
23988;SDS011;74667;52.136;5.592;2024-03-22T10:46:12;23.00;;;12.93;;
23988;SDS011;74667;52.136;5.592;2024-03-22T10:48:38;17.75;;;12.23;;
23988;SDS011;74667;52.136;5.592;2024-03-22T10:51:05;19.30;;;11.85;;
23988;SDS011;74667;52.136;5.592;2024-03-22T10:53:31;21.70;;;12.05;;
23988;SDS011;74667;52.136;5.592;2024-03-22T10:55:57;17.00;;;11.50;;
23988;SDS011;74667;52.136;5.592;2024-03-22T10:58:24;22.02;;;13.00;;
23988;SDS011;74667;52.136;5.592;2024-03-22T11:00:53;19.88;;;12.20;;
23988;SDS011;74667;52.136;5.592;2024-03-22T11:03:19;18.42;;;11.70;;
23988;SDS011;74667;52.136;5.592;2024-03-22T11:05:48;18.20;;;10.75;;
23988;SDS011;74667;52.136;5.592;2024-03-22T11:08:23;19.98;;;11.50;;
23988;SDS011;74667;52.136;5.592;2024-03-22T11:10:48;20.73;;;12.13;;
23988;SDS011;74667;52.136;5.592;2024-03-22T11:13:15;20.60;;;12.25;;
23988;SDS011;74667;52.136;5.592;2024-03-22T11:15:41;18.10;;;11.32;;
23988;SDS011;74667;52.136;5.592;2024-03-22T11:18:06;17.60;;;12.27;;
23988;SDS011;74667;52.136;5.592;2024-03-22T11:20:31;19.83;;;12.00;;
23988;SDS011;74667;52.136;5.592;2024-03-22T11:23:00;15.88;;;11.90;;
23988;SDS011;74667;52.136;5.592;2024-03-22T11:25:26;18.73;;;11.65;;
23988;SDS011;74667;52.136;5.592;2024-03-22T11:27:51;18.85;;;12.93;;
23988;SDS011;74667;52.136;5.592;2024-03-22T11:30:17;17.97;;;12.33;;
23988;SDS011;74667;52.136;5.592;2024-03-22T11:32:42;19.83;;;11.50;;
23988;SDS011;74667;52.136;5.592;2024-03-22T11:35:10;16.02;;;11.57;;
23988;SDS011;74667;52.136;5.592;2024-03-22T11:37:36;15.57;;;10.52;;
23988;SDS011;74667;52.136;5.592;2024-03-22T11:40:01;16.48;;;11.30;;
23988;SDS011;74667;52.136;5.592;2024-03-22T11:42:30;16.40;;;11.02;;
23988;SDS011;74667;52.136;5.592;2024-03-22T11:44:55;15.65;;;9.88;;
23988;SDS011;74667;52.136;5.592;2024-03-22T11:47:21;15.40;;;10.40;;
23988;SDS011;74667;52.136;5.592;2024-03-22T11:49:46;14.20;;;10.20;;
23988;SDS011;74667;52.136;5.592;2024-03-22T11:52:11;14.97;;;9.10;;
23988;SDS011;74667;52.136;5.592;2024-03-22T11:54:36;15.93;;;9.83;;
23988;SDS011;74667;52.136;5.592;2024-03-22T11:57:02;13.37;;;9.70;;
23988;SDS011;74667;52.136;5.592;2024-03-22T11:59:29;14.38;;;9.40;;
23988;SDS011;74667;52.136;5.592;2024-03-22T12:01:54;12.20;;;8.55;;
23988;SDS011;74667;52.136;5.592;2024-03-22T12:04:19;11.25;;;7.90;;
23988;SDS011;74667;52.136;5.592;2024-03-22T12:06:44;9.70;;;7.63;;
23988;SDS011;74667;52.136;5.592;2024-03-22T12:09:10;10.43;;;8.48;;
23988;SDS011;74667;52.136;5.592;2024-03-22T12:11:37;9.45;;;7.97;;
23988;SDS011;74667;52.136;5.592;2024-03-22T12:14:02;10.73;;;6.93;;
23988;SDS011;74667;52.136;5.592;2024-03-22T12:16:27;9.57;;;7.13;;
23988;SDS011;74667;52.136;5.592;2024-03-22T12:18:52;9.40;;;6.72;;
23988;SDS011;74667;52.136;5.592;2024-03-22T12:21:18;11.63;;;6.93;;
23988;SDS011;74667;52.136;5.592;2024-03-22T12:23:43;9.63;;;5.87;;
23988;SDS011;74667;52.136;5.592;2024-03-22T12:26:08;10.10;;;6.13;;
23988;SDS011;74667;52.136;5.592;2024-03-22T12:28:33;9.10;;;5.87;;
23988;SDS011;74667;52.136;5.592;2024-03-22T12:30:58;7.73;;;5.43;;
23988;SDS011;74667;52.136;5.592;2024-03-22T12:33:23;6.77;;;4.70;;
23988;SDS011;74667;52.136;5.592;2024-03-22T12:35:48;6.10;;;4.37;;
23988;SDS011;74667;52.136;5.592;2024-03-22T12:38:14;5.50;;;5.00;;
23988;SDS011;74667;52.136;5.592;2024-03-22T12:40:39;7.90;;;4.85;;
23988;SDS011;74667;52.136;5.592;2024-03-22T12:43:05;5.22;;;4.57;;
23988;SDS011;74667;52.136;5.592;2024-03-22T12:45:30;6.18;;;5.57;;
23988;SDS011;74667;52.136;5.592;2024-03-22T12:47:55;7.03;;;5.10;;
23988;SDS011;74667;52.136;5.592;2024-03-22T12:50:21;7.53;;;5.80;;
23988;SDS011;74667;52.136;5.592;2024-03-22T12:52:46;5.50;;;4.93;;
23988;SDS011;74667;52.136;5.592;2024-03-22T12:55:11;7.47;;;5.30;;
23988;SDS011;74667;52.136;5.592;2024-03-22T12:57:36;6.57;;;5.15;;
23988;SDS011;74667;52.136;5.592;2024-03-22T13:00:02;6.67;;;5.47;;
23988;SDS011;74667;52.136;5.592;2024-03-22T13:02:28;7.97;;;6.03;;
23988;SDS011;74667;52.136;5.592;2024-03-22T13:04:54;9.80;;;6.43;;
23988;SDS011;74667;52.136;5.592;2024-03-22T13:07:19;11.27;;;8.23;;
23988;SDS011;74667;52.136;5.592;2024-03-22T13:09:44;13.68;;;8.88;;
23988;SDS011;74667;52.136;5.592;2024-03-22T13:12:10;13.85;;;7.93;;
23988;SDS011;74667;52.136;5.592;2024-03-22T13:14:35;13.90;;;8.20;;
23988;SDS011;74667;52.136;5.592;2024-03-22T13:17:00;17.10;;;9.30;;
23988;SDS011;74667;52.136;5.592;2024-03-22T13:19:25;17.13;;;9.13;;
23988;SDS011;74667;52.136;5.592;2024-03-22T13:21:51;15.32;;;9.05;;
23988;SDS011;74667;52.136;5.592;2024-03-22T13:24:16;15.00;;;9.40;;
23988;SDS011;74667;52.136;5.592;2024-03-22T13:26:42;15.85;;;9.23;;
23988;SDS011;74667;52.136;5.592;2024-03-22T13:29:07;15.02;;;8.93;;
23988;SDS011;74667;52.136;5.592;2024-03-22T13:31:32;17.33;;;9.67;;
23988;SDS011;74667;52.136;5.592;2024-03-22T13:33:58;15.77;;;8.70;;
23988;SDS011;74667;52.136;5.592;2024-03-22T13:36:23;12.02;;;7.90;;
23988;SDS011;74667;52.136;5.592;2024-03-22T13:38:50;17.38;;;8.98;;
23988;SDS011;74667;52.136;5.592;2024-03-22T13:41:15;20.08;;;9.05;;
23988;SDS011;74667;52.136;5.592;2024-03-22T13:43:41;15.67;;;8.60;;
23988;SDS011;74667;52.136;5.592;2024-03-22T13:46:09;17.33;;;9.18;;
23988;SDS011;74667;52.136;5.592;2024-03-22T13:48:37;13.63;;;7.90;;
23988;SDS011;74667;52.136;5.592;2024-03-22T13:51:02;15.57;;;8.00;;
23988;SDS011;74667;52.136;5.592;2024-03-22T13:53:28;14.75;;;7.38;;
23988;SDS011;74667;52.136;5.592;2024-03-22T13:55:53;10.15;;;7.53;;
23988;SDS011;74667;52.136;5.592;2024-03-22T13:58:19;17.15;;;8.15;;
23988;SDS011;74667;52.136;5.592;2024-03-22T14:00:44;12.88;;;7.95;;
23988;SDS011;74667;52.136;5.592;2024-03-22T14:03:09;17.67;;;9.30;;
23988;SDS011;74667;52.136;5.592;2024-03-22T14:05:35;16.67;;;8.48;;
23988;SDS011;74667;52.136;5.592;2024-03-22T14:08:00;17.73;;;9.80;;
23988;SDS011;74667;52.136;5.592;2024-03-22T14:10:25;14.93;;;9.80;;
23988;SDS011;74667;52.136;5.592;2024-03-22T14:12:56;21.95;;;9.45;;